Corona Range LRC Data

Date Time Air Temperature Relative Humidity Dewpoint Windchill Heat Index Wind Speed Wind Dir. Rain Solar Radiation Soil Temperature
2m 2m 3m 3m 10cm
US/Mountain F % F F F MPH deg in MJ/m^2 F
max avg avg
2021-07-22 00:05:00 63.1 68.0 52.3 63.1 63.1 7.6 10.5 6.9 144.6 112.5 0.00 0.0000000 77.0
2021-07-22 00:10:00 63.1 67.5 52.2 63.1 63.1 6.0 9.7 7.4 49.0 109.8 0.00 0.0000000 76.9
2021-07-22 00:15:00 63.1 67.4 52.1 63.1 63.1 7.1 9.7 7.5 122.9 108.8 0.00 0.0000000 76.8
2021-07-22 00:20:00 63.0 67.4 52.0 63.0 63.0 6.9 8.5 6.8 136.8 117.3 0.00 0.0000000 76.7
2021-07-22 00:25:00 62.8 67.8 52.0 62.8 62.8 6.7 8.0 6.0 67.4 120.7 0.00 0.0000000 76.7
2021-07-22 00:30:00 62.9 67.8 52.1 62.9 62.9 6.0 8.3 6.3 66.1 103.8 0.00 0.0000000 76.6
2021-07-22 00:35:00 62.8 68.0 52.1 62.8 62.8 6.2 7.4 6.0 121.2 110.7 0.00 0.0000000 76.5
2021-07-22 00:40:00 62.6 67.8 51.9 62.6 62.6 7.6 7.6 5.1 151.2 102.4 0.00 0.0000000 76.4
2021-07-22 00:45:00 62.6 68.1 52.0 62.6 62.6 5.8 8.1 6.0 119.8 100.2 0.00 0.0000000 76.3
2021-07-22 00:50:00 62.4 68.6 52.0 62.4 62.4 6.2 7.1 5.8 108.7 105.7 0.00 0.0000000 76.3
2021-07-22 00:55:00 62.3 69.1 52.0 62.3 62.3 5.6 7.6 6.1 80.4 116.5 0.00 0.0000000 76.2
2021-07-22 01:00:00 62.2 69.0 51.9 62.2 62.2 7.1 8.8 6.5 134.5 104.7 0.00 0.0000000 76.1
2021-07-22 01:05:00 62.3 68.8 51.9 62.3 62.3 6.9 7.6 6.5 52.4 97.9 0.00 0.0000000 76.0
2021-07-22 01:10:00 62.1 69.3 51.9 62.1 62.1 5.3 7.6 6.1 94.2 107.9 0.00 0.0000000 76.0
2021-07-22 01:15:00 62.0 69.6 51.9 62.0 62.0 4.2 7.2 4.9 132.1 107.0 0.00 0.0000000 75.9
2021-07-22 01:20:00 61.9 69.7 51.9 61.9 61.9 5.3 5.5 4.5 145.0 100.7 0.00 0.0000000 75.8
2021-07-22 01:25:00 61.9 69.3 51.7 61.9 61.9 3.1 5.1 4.0 110.9 102.4 0.00 0.0000000 75.7
2021-07-22 01:30:00 62.0 69.3 51.9 62.0 62.0 3.0 4.7 3.7 132.9 99.2 0.00 0.0000000 75.7
2021-07-22 01:35:00 61.8 69.4 51.7 61.8 61.8 6.3 6.3 4.2 77.3 82.1 0.00 0.0000000 75.6
2021-07-22 01:40:00 61.8 69.8 51.8 61.8 61.8 6.0 6.7 5.2 66.2 89.9 0.00 0.0000000 75.5
2021-07-22 01:45:00 61.8 69.3 51.6 61.8 61.8 6.9 7.6 6.1 76.5 95.5 0.00 0.0000000 75.4
2021-07-22 01:50:00 61.4 70.6 51.7 61.4 61.4 4.9 6.9 5.7 120.8 105.3 0.00 0.0000000 75.3
2021-07-22 01:55:00 61.3 70.9 51.8 61.3 61.3 5.1 6.9 5.6 129.2 91.9 0.00 0.0000000 75.3
2021-07-22 02:00:00 60.9 71.5 51.6 60.9 60.9 6.5 7.2 5.7 121.9 105.3 0.00 0.0000000 75.2
2021-07-22 02:05:00 60.8 71.9 51.7 60.8 60.8 6.0 6.0 5.2 124.4 111.7 0.00 0.0000000 75.1
2021-07-22 02:10:00 60.7 71.6 51.5 60.7 60.7 5.1 6.7 5.0 33.8 105.0 0.00 0.0000000 75.1
2021-07-22 02:15:00 60.7 72.1 51.6 60.7 60.7 4.4 5.6 4.4 90.8 110.0 0.00 0.0000000 75.0
2021-07-22 02:20:00 60.4 73.0 51.7 60.4 60.4 3.7 5.8 4.5 132.4 105.4 0.00 0.0000000 75.0
2021-07-22 02:25:00 60.2 72.9 51.5 60.2 60.2 4.0 5.3 4.4 111.5 101.5 0.00 0.0000000 74.9
2021-07-22 02:30:00 60.0 73.3 51.4 60.0 60.0 5.5 6.2 4.7 127.1 112.6 0.00 0.0000000 74.9
2021-07-22 02:35:00 59.9 73.2 51.3 59.9 59.9 4.4 5.6 4.9 124.0 107.1 0.00 0.0000000 74.8
2021-07-22 02:40:00 59.8 73.1 51.2 59.8 59.8 5.3 5.8 4.7 130.0 112.1 0.00 0.0000000 74.7
2021-07-22 02:45:00 59.8 72.9 51.1 59.8 59.8 3.1 5.3 3.9 120.8 109.3 0.00 0.0000000 74.7
2021-07-22 02:50:00 59.8 73.2 51.2 59.8 59.8 4.4 4.4 3.4 18.8 104.9 0.00 0.0000000 74.6
2021-07-22 02:55:00 60.0 72.3 51.0 60.0 60.0 3.3 4.7 4.0 99.7 100.6 0.00 0.0000000 74.5
2021-07-22 03:00:00 60.0 72.4 51.1 60.0 60.0 3.5 4.0 3.3 52.0 91.1 0.00 0.0000000 74.5
2021-07-22 03:05:00 59.8 72.9 51.1 59.8 59.8 2.6 4.0 3.0 135.2 98.7 0.00 0.0000000 74.4
2021-07-22 03:10:00 59.7 73.5 51.2 59.7 59.7 0.0 3.3 1.7 175.7 154.7 0.00 0.0000000 74.3
2021-07-22 03:15:00 59.6 73.7 51.2 59.6 59.6 0.0 1.5 0.6 177.9 202.4 0.00 0.0000000 74.3
2021-07-22 03:20:00 59.5 73.5 51.0 59.5 59.5 1.3 1.7 0.8 244.9 168.7 0.00 0.0000000 74.2
2021-07-22 03:25:00 59.5 73.8 51.2 59.5 59.5 1.7 1.7 0.8 349.3 342.4 0.00 0.0000000 74.1
2021-07-22 03:30:00 59.3 74.0 51.0 59.3 59.3 1.3 2.2 1.9 295.4 329.5 0.00 0.0000000 74.0
2021-07-22 03:35:00 59.0 76.6 51.6 59.0 59.0 3.3 3.5 2.7 294.1 319.6 0.00 0.0000000 74.0
2021-07-22 03:40:00 58.2 78.9 51.7 58.2 58.2 2.1 3.5 3.0 305.5 295.9 0.00 0.0000000 73.9
2021-07-22 03:45:00 58.4 77.6 51.4 58.4 58.4 2.1 2.4 2.1 320.2 315.1 0.00 0.0000000 73.9
2021-07-22 03:50:00 59.0 74.5 50.9 59.0 59.0 0.0 1.9 0.7 326.8 316.0 0.00 0.0000000 73.7
2021-07-22 03:55:00 59.2 74.1 51.0 59.2 59.2 0.0 0.0 0.0 326.9 0.0 0.00 0.0000000 73.7
2021-07-22 04:00:00 58.9 76.8 51.6 58.9 58.9 0.0 1.3 0.5 216.7 229.0 0.00 0.0000000 73.6
2021-07-22 04:05:00 58.4 79.0 51.9 58.4 58.4 0.0 0.0 0.0 170.1 0.0 0.00 0.0000000 73.6
2021-07-22 04:10:00 57.9 80.7 52.0 57.9 57.9 0.0 0.0 0.0 144.7 0.0 0.00 0.0000000 73.5
2021-07-22 04:15:00 57.3 80.5 51.3 57.3 57.3 0.0 0.8 0.0 137.0 137.0 0.00 0.0000000 73.4
2021-07-22 04:20:00 56.6 83.3 51.6 56.6 56.6 2.4 2.6 0.7 218.9 197.0 0.00 0.0000000 73.3
2021-07-22 04:25:00 56.3 84.1 51.5 56.3 56.3 2.8 3.1 2.6 214.3 193.6 0.00 0.0000000 73.3
2021-07-22 04:30:00 56.2 83.8 51.3 56.2 56.2 2.6 3.0 2.6 233.9 218.0 0.00 0.0000000 73.2
2021-07-22 04:35:00 56.4 82.6 51.2 56.4 56.4 3.3 3.7 3.1 240.7 231.5 0.00 0.0000000 73.2
2021-07-22 04:40:00 56.0 84.3 51.3 56.0 56.0 3.1 3.7 3.1 227.0 231.1 0.00 0.0000000 73.1
2021-07-22 04:45:00 55.9 84.0 51.1 55.9 55.9 2.4 3.1 2.8 232.1 233.7 0.00 0.0000000 73.0
2021-07-22 04:50:00 55.8 84.8 51.3 55.8 55.8 1.9 2.6 1.8 198.5 215.3 0.00 0.0000000 73.0
2021-07-22 04:55:00 55.5 84.8 51.0 55.5 55.5 2.8 3.1 2.0 128.9 145.6 0.00 0.0000000 72.9
2021-07-22 05:00:00 55.7 83.3 50.7 55.7 55.7 2.4 3.3 2.6 32.3 107.6 0.00 0.0000000 72.8
2021-07-22 05:05:00 55.9 83.4 50.9 55.9 55.9 3.3 4.4 3.1 55.8 102.2 0.00 0.0000000 72.8
2021-07-22 05:10:00 56.1 82.7 50.9 56.1 56.1 3.7 5.1 3.8 120.6 111.5 0.00 0.0000000 72.7
2021-07-22 05:15:00 56.0 82.1 50.7 56.0 56.0 3.5 4.4 3.8 23.4 96.4 0.00 0.0000000 72.6
2021-07-22 05:20:00 56.7 79.9 50.5 56.7 56.7 3.5 4.2 3.5 133.1 89.4 0.00 0.0000000 72.6
2021-07-22 05:25:00 56.8 79.9 50.6 56.8 56.8 4.2 4.2 3.5 95.7 92.8 0.00 0.0000000 72.5
2021-07-22 05:30:00 56.8 80.2 50.8 56.8 56.8 4.4 5.5 4.7 86.5 77.4 0.00 0.0000000 72.5
2021-07-22 05:35:00 56.9 79.3 50.6 56.9 56.9 4.7 6.2 4.7 107.2 92.0 0.00 0.0000000 72.4
2021-07-22 05:40:00 57.8 76.2 50.4 57.8 57.8 5.5 6.9 5.6 68.1 93.5 0.00 0.0000000 72.3
2021-07-22 05:45:00 58.5 74.5 50.4 58.5 58.5 4.7 7.2 5.4 157.8 95.4 0.00 0.0000000 72.3
2021-07-22 05:50:00 58.7 74.0 50.5 58.7 58.7 4.2 6.3 5.1 164.7 100.7 0.00 0.0000000 72.2
2021-07-22 05:55:00 58.8 73.8 50.5 58.8 58.8 3.8 5.6 4.5 120.0 123.4 0.00 0.0000000 72.2
2021-07-22 06:00:00 58.7 74.3 50.6 58.7 58.7 5.1 5.3 4.3 168.9 140.8 0.00 0.0000000 72.2
2021-07-22 06:05:00 58.4 75.2 50.5 58.4 58.4 4.6 6.0 4.5 162.1 150.3 0.00 0.0000000 72.1
2021-07-22 06:10:00 58.4 75.9 50.8 58.4 58.4 6.0 6.2 4.9 54.4 134.3 0.00 0.0000000 72.1
2021-07-22 06:15:00 58.7 74.0 50.4 58.7 58.7 4.6 7.2 5.2 157.6 128.2 0.00 0.0000506 72.0
2021-07-22 06:20:00 59.4 71.5 50.2 59.4 59.4 6.0 6.3 5.1 174.8 112.8 0.00 0.0005640 71.9
2021-07-22 06:25:00 59.8 70.8 50.4 59.8 59.8 4.6 6.7 5.6 189.6 117.8 0.00 0.0009029 71.9
2021-07-22 06:30:00 59.7 70.3 50.0 59.7 59.7 6.0 6.7 5.0 134.6 121.8 0.00 0.0013492 71.8
2021-07-22 06:35:00 60.3 68.4 49.9 60.3 60.3 5.6 6.9 5.5 154.9 137.1 0.00 0.0045223 71.8
2021-07-22 06:40:00 60.1 70.8 50.6 60.1 60.1 5.8 5.8 4.7 143.1 134.0 0.00 0.0054061 71.7
2021-07-22 06:45:00 59.8 71.1 50.4 59.8 59.8 4.9 6.5 5.2 167.7 150.6 0.00 0.0058999 71.7
2021-07-22 06:50:00 59.9 70.3 50.2 59.9 59.9 5.5 5.6 4.7 151.3 165.9 0.00 0.0053122 71.6
2021-07-22 06:55:00 60.4 67.8 49.7 60.4 60.4 4.4 7.8 6.0 159.8 157.6 0.00 0.0063928 71.6
2021-07-22 07:00:00 60.9 67.3 49.9 60.9 60.9 4.2 7.1 5.6 170.5 171.8 0.00 0.0082838 71.5
2021-07-22 07:05:00 60.9 65.8 49.4 60.9 60.9 4.9 6.7 5.1 183.2 164.8 0.00 0.0107071 71.5
2021-07-22 07:10:00 61.7 62.8 48.9 61.7 61.7 5.6 7.8 5.6 170.1 176.3 0.00 0.0129850 71.4
2021-07-22 07:15:00 62.2 63.2 49.6 62.2 62.2 4.9 7.8 6.0 227.0 189.4 0.00 0.0143713 71.4
2021-07-22 07:20:00 62.2 64.3 49.9 62.2 62.2 4.7 6.0 5.0 184.9 193.7 0.00 0.0157204 71.4
2021-07-22 07:25:00 62.2 65.6 50.6 62.2 62.2 2.1 5.1 3.6 222.5 204.8 0.00 0.0154659 71.3
2021-07-22 07:30:00 62.2 67.6 51.4 62.2 62.2 1.5 2.2 1.9 280.8 254.1 0.00 0.0155530 71.3
2021-07-22 07:35:00 62.3 69.9 52.4 62.3 62.3 0.8 1.7 0.9 262.2 282.8 0.00 0.0182672 71.3
2021-07-22 07:40:00 61.9 71.7 52.7 61.9 61.9 1.3 2.2 1.8 6.0 331.8 0.00 0.0188532 71.2
2021-07-22 07:45:00 62.3 69.9 52.3 62.3 62.3 0.8 1.9 1.3 329.8 345.3 0.00 0.0266486 71.2
2021-07-22 07:50:00 62.8 68.2 52.1 62.8 62.8 1.3 1.3 0.1 125.9 167.1 0.00 0.0304265 71.2
2021-07-22 07:55:00 63.2 62.8 50.4 63.2 63.2 2.2 3.3 2.6 163.1 158.1 0.00 0.0259468 71.2
2021-07-22 08:00:00 63.8 62.4 50.7 63.8 63.8 2.8 3.3 2.4 129.5 143.6 0.00 0.0220427 71.2
2021-07-22 08:05:00 64.1 61.4 50.5 64.1 64.1 1.9 2.8 2.3 178.2 141.3 0.00 0.0235403 71.1
2021-07-22 08:10:00 64.6 59.4 50.1 64.6 64.6 3.3 3.3 2.7 126.3 154.5 0.00 0.0422678 71.1
2021-07-22 08:15:00 65.3 57.9 50.1 65.3 65.3 2.1 3.7 3.1 165.1 165.3 0.00 0.0521460 71.1
2021-07-22 08:20:00 66.2 56.6 50.3 66.2 66.2 2.1 3.3 2.5 157.5 159.9 0.00 0.0677016 71.1
2021-07-22 08:25:00 66.7 56.5 50.7 66.7 66.7 2.4 4.2 3.1 182.5 173.5 0.00 0.0504390 71.1
2021-07-22 08:30:00 67.6 53.9 50.3 67.6 67.6 3.3 4.0 2.9 117.9 177.9 0.00 0.0638844 71.1
2021-07-22 08:35:00 68.1 53.3 50.5 68.1 68.1 4.6 5.6 3.9 175.5 170.9 0.00 0.0766159 71.1
2021-07-22 08:40:00 68.8 49.7 49.2 68.8 68.8 6.5 8.3 4.9 116.6 180.5 0.00 0.0672177 71.1
2021-07-22 08:45:00 69.2 48.7 49.1 69.2 69.2 4.7 9.7 6.0 219.8 205.5 0.00 0.0568967 71.1
2021-07-22 08:50:00 70.3 46.0 48.5 70.3 70.3 9.0 9.0 6.4 197.3 220.3 0.00 0.0805812 71.2
2021-07-22 08:55:00 71.5 42.9 47.7 71.5 71.5 8.7 15.1 10.6 236.0 218.8 0.00 0.0887745 71.2
2021-07-22 09:00:00 72.0 42.7 48.1 72.0 72.0 8.7 14.4 9.8 210.2 209.8 0.00 0.0865949 71.2
2021-07-22 09:05:00 71.6 42.1 47.3 71.6 71.6 11.9 13.9 11.6 233.0 215.4 0.00 0.0731662 71.2
2021-07-22 09:10:00 71.8 44.0 48.7 71.8 71.8 8.5 13.7 11.1 199.3 204.4 0.00 0.0948084 71.3
2021-07-22 09:15:00 72.5 42.6 48.5 72.5 72.5 9.4 12.4 9.9 145.0 208.0 0.00 0.1007800 71.3
2021-07-22 09:20:00 72.8 43.2 49.1 72.8 72.8 9.0 11.3 9.0 205.7 223.2 0.00 0.0944546 71.4
2021-07-22 09:25:00 73.1 39.4 46.9 73.1 73.1 7.4 12.1 8.7 187.0 204.6 0.00 0.1036822 71.5
2021-07-22 09:30:00 73.3 41.5 48.5 73.3 73.3 8.5 11.3 9.3 198.3 195.2 0.00 0.1107343 71.5
2021-07-22 09:35:00 73.4 39.3 47.2 73.4 73.4 8.3 14.2 9.3 183.8 193.5 0.00 0.1153610 71.6
2021-07-22 09:40:00 73.8 38.2 46.8 73.8 73.8 14.0 14.0 7.9 227.5 182.4 0.00 0.1194014 71.7
2021-07-22 09:45:00 74.4 39.0 47.9 74.4 74.4 6.3 14.7 8.3 258.5 241.5 0.00 0.1235205 71.7
2021-07-22 09:50:00 74.7 40.0 48.7 74.7 74.7 6.3 10.5 7.6 222.2 215.3 0.00 0.1231219 71.8
2021-07-22 09:55:00 74.8 39.7 48.7 74.8 74.8 6.5 11.0 7.3 218.8 180.6 0.00 0.1252190 71.9
2021-07-22 10:00:00 75.2 37.7 47.6 75.2 75.2 10.3 11.7 9.0 221.2 223.8 0.00 0.1258662 72.0
2021-07-22 10:05:00 75.6 39.7 49.4 75.6 75.6 5.1 10.1 7.1 226.4 225.2 0.00 0.1265605 72.1
2021-07-22 10:10:00 75.4 38.5 48.4 75.4 75.4 10.3 10.5 7.9 133.5 181.1 0.00 0.1299596 72.3
2021-07-22 10:15:00 75.7 38.9 48.9 75.7 75.7 8.5 11.9 8.3 179.1 174.6 0.00 0.1282455 72.4
2021-07-22 10:20:00 75.7 37.5 47.9 75.7 75.7 9.2 11.9 9.6 190.9 192.1 0.00 0.1321659 72.5
2021-07-22 10:25:00 76.2 37.3 48.2 76.2 76.2 8.7 10.5 8.3 160.1 192.9 0.00 0.1357848 72.7
2021-07-22 10:30:00 76.4 37.6 48.6 76.4 76.4 5.3 9.2 6.9 97.8 176.9 0.00 0.1410833 72.8
2021-07-22 10:35:00 76.4 37.9 48.8 76.4 76.4 6.3 9.7 7.4 164.3 196.2 0.00 0.1410634 73.0
2021-07-22 10:40:00 76.3 37.7 48.6 76.3 76.3 4.4 11.2 6.4 235.6 172.2 0.00 0.1432889 73.1
2021-07-22 10:45:00 76.9 37.4 48.9 76.9 76.9 6.2 11.9 7.3 199.7 200.5 0.00 0.1468583 73.3
2021-07-22 10:50:00 77.3 40.0 51.1 77.3 77.3 7.2 10.1 7.2 112.8 178.1 0.00 0.1501573 73.5
2021-07-22 10:55:00 77.7 38.7 50.6 77.7 77.7 8.3 12.2 8.4 176.2 177.5 0.00 0.1531318 73.7
2021-07-22 11:00:00 77.0 37.8 49.4 77.0 77.0 8.5 13.7 9.1 141.0 162.2 0.00 0.1553338 73.9
2021-07-22 11:05:00 76.9 38.8 49.9 76.9 76.9 9.7 15.3 11.4 82.0 175.8 0.00 0.1592299 74.1
2021-07-22 11:10:00 77.6 36.6 49.0 77.6 77.6 6.3 11.2 8.1 123.1 157.4 0.00 0.1628008 74.3
2021-07-22 11:15:00 78.3 35.5 48.7 78.3 78.3 11.7 12.8 9.6 101.8 169.3 0.00 0.1640036 74.5
2021-07-22 11:20:00 77.8 37.2 49.6 77.8 77.8 13.9 16.5 12.1 170.6 182.7 0.00 0.1668588 74.7
2021-07-22 11:25:00 77.3 36.6 48.7 77.3 77.3 11.9 14.9 11.8 156.1 167.7 0.00 0.1660998 74.9
2021-07-22 11:30:00 78.2 36.7 49.6 78.2 78.2 11.0 13.1 10.1 186.2 149.3 0.00 0.1657841 75.1
2021-07-22 11:35:00 78.0 37.0 49.6 78.0 78.0 9.9 13.7 9.9 134.4 150.9 0.00 0.1697702 75.4
2021-07-22 11:40:00 78.3 35.4 48.7 78.3 78.3 11.9 12.6 10.4 163.9 153.0 0.00 0.1724642 75.6
2021-07-22 11:45:00 78.7 37.3 50.5 78.7 78.7 11.5 13.0 9.9 128.2 153.4 0.00 0.1736610 75.8
2021-07-22 11:50:00 78.4 38.2 50.8 78.4 78.4 6.3 15.6 10.9 39.8 155.3 0.00 0.1768647 76.1
2021-07-22 11:55:00 78.8 35.5 49.2 78.8 78.8 9.2 11.9 9.2 190.0 169.6 0.00 0.1797747 76.3
2021-07-22 12:00:00 78.8 36.1 49.7 78.8 78.8 10.5 13.0 9.7 187.2 163.8 0.00 0.1593332 76.5
2021-07-22 12:05:00 78.8 37.9 51.0 78.8 78.8 6.7 12.8 8.9 185.0 160.8 0.00 0.1768409 76.8
2021-07-22 12:10:00 79.3 36.4 50.4 79.3 79.3 8.1 13.1 10.1 150.6 154.0 0.00 0.1750785 77.0
2021-07-22 12:15:00 79.7 37.7 51.7 79.7 79.7 5.8 12.8 8.2 157.7 144.6 0.00 0.1752383 77.2
2021-07-22 12:20:00 79.6 38.1 51.9 79.6 79.6 8.1 11.0 8.3 68.9 123.4 0.00 0.1762107 77.5
2021-07-22 12:25:00 79.7 36.4 50.7 79.7 79.7 8.0 13.5 8.6 141.1 139.2 0.00 0.1777575 77.7
2021-07-22 12:30:00 79.8 38.2 52.1 79.8 79.8 10.5 12.1 7.8 131.2 145.4 0.00 0.1781889 78.0
2021-07-22 12:35:00 79.4 38.1 51.7 79.4 79.4 7.2 11.3 8.4 132.6 131.9 0.00 0.1782688 78.2
2021-07-22 12:40:00 79.3 34.7 49.1 79.3 79.3 6.9 14.6 10.9 59.7 143.8 0.00 0.1786674 78.4
2021-07-22 12:45:00 79.6 35.5 50.0 79.6 79.6 8.7 11.9 7.8 159.5 150.4 0.00 0.1793373 78.7
2021-07-22 12:50:00 80.5 37.6 52.3 80.5 80.5 6.3 16.0 9.4 127.4 185.8 0.00 0.1793928 78.9
2021-07-22 12:55:00 80.3 36.6 51.3 80.3 80.3 7.4 11.0 7.4 190.5 184.9 0.00 0.1791556 79.2
2021-07-22 13:00:00 80.9 33.3 49.4 80.9 80.9 9.7 10.6 8.1 200.6 170.5 0.00 0.1782326 79.4
2021-07-22 13:05:00 80.7 38.3 53.0 80.7 80.7 7.6 11.5 8.2 181.0 188.1 0.00 0.1776088 79.7
2021-07-22 13:10:00 81.4 37.8 53.2 81.4 81.4 3.7 11.7 7.1 263.7 186.5 0.00 0.1781587 79.9
2021-07-22 13:15:00 81.6 34.4 50.8 81.6 81.6 3.8 8.3 5.3 151.4 253.7 0.00 0.1769871 80.2
2021-07-22 13:20:00 81.8 35.5 51.8 81.8 81.8 9.0 10.3 6.5 220.8 160.8 0.00 0.1761648 80.4
2021-07-22 13:25:00 81.2 35.8 51.6 81.2 81.2 8.8 13.7 10.2 71.8 199.9 0.00 0.1775488 80.7
2021-07-22 13:30:00 81.8 35.3 51.7 81.8 81.8 10.8 16.2 11.2 168.2 189.5 0.00 0.1790370 80.9
2021-07-22 13:35:00 81.6 33.1 49.8 81.6 81.6 6.9 13.3 7.5 133.6 157.3 0.00 0.1606744 81.2
2021-07-22 13:40:00 81.6 32.0 48.9 81.6 81.6 3.3 10.5 6.3 105.2 149.9 0.00 0.1795561 81.4
2021-07-22 13:45:00 82.0 30.2 47.7 82.0 82.0 12.2 13.7 7.7 123.4 165.9 0.00 0.1808905 81.6
2021-07-22 13:50:00 82.2 30.4 48.1 82.2 82.2 7.1 12.1 7.2 42.8 161.4 0.00 0.1836065 81.9
2021-07-22 13:55:00 82.6 30.6 48.6 82.6 82.6 11.0 12.4 8.3 117.2 149.5 0.00 0.1913930 82.1
2021-07-22 14:00:00 82.9 30.9 49.1 82.9 82.9 12.8 13.3 9.4 150.1 132.2 0.00 0.1881455 82.4
2021-07-22 14:05:00 83.0 30.2 48.6 83.0 83.0 9.0 10.6 7.9 108.8 137.6 0.00 0.1831966 82.6
2021-07-22 14:10:00 83.2 30.6 49.1 83.2 83.2 18.3 18.3 10.6 118.9 148.4 0.00 0.1792090 82.8
2021-07-22 14:15:00 83.2 33.3 51.4 83.2 83.2 7.6 16.9 10.2 170.0 145.4 0.00 0.1802776 83.1
2021-07-22 14:20:00 83.7 30.8 49.7 83.7 83.7 10.1 13.5 8.7 167.9 161.1 0.00 0.1821918 83.3
2021-07-22 14:25:00 82.6 32.3 50.0 82.6 82.6 3.3 12.8 8.9 125.0 167.0 0.00 0.1764476 83.5
2021-07-22 14:30:00 83.2 33.4 51.5 83.2 83.2 6.5 12.8 9.6 127.5 149.2 0.00 0.1813211 83.8
2021-07-22 14:35:00 82.9 29.7 48.0 82.9 82.9 15.3 16.5 10.7 145.2 173.6 0.00 0.1236788 84.0
2021-07-22 14:40:00 82.8 31.3 49.4 82.8 82.8 8.3 15.3 10.9 208.7 182.1 0.00 0.0878031 84.1
2021-07-22 14:45:00 83.3 31.4 49.9 83.3 83.3 3.8 9.4 6.3 206.9 195.9 0.00 0.1314365 84.4
2021-07-22 14:50:00 83.6 31.0 49.7 83.6 83.6 14.9 15.1 8.9 212.3 201.0 0.00 0.1806318 84.6
2021-07-22 14:55:00 83.8 30.0 49.1 83.8 83.8 11.2 14.4 10.1 188.3 184.2 0.00 0.1756717 84.8
2021-07-22 15:00:00 84.3 28.2 47.8 84.3 84.3 11.5 11.5 9.1 196.5 174.5 0.00 0.1708042 85.0
2021-07-22 15:05:00 84.7 28.9 48.8 84.7 84.7 11.9 11.9 9.0 162.3 156.4 0.00 0.1648823 85.1
2021-07-22 15:10:00 84.0 29.4 48.7 84.0 84.0 7.6 15.8 11.3 204.6 190.0 0.00 0.1699077 85.3
2021-07-22 15:15:00 83.7 28.5 47.6 83.7 83.7 10.5 12.8 7.6 161.6 177.5 0.00 0.1305945 85.5
2021-07-22 15:20:00 83.7 30.2 49.2 83.7 83.7 9.6 13.3 9.0 139.1 141.1 0.00 0.1260120 85.6
2021-07-22 15:25:00 83.4 31.5 50.0 83.4 83.4 6.7 13.5 9.4 224.9 152.0 0.00 0.1305499 85.8
2021-07-22 15:30:00 84.5 27.3 47.2 84.5 84.5 4.7 14.9 9.4 154.3 185.6 0.00 0.1810656 85.9
2021-07-22 15:35:00 84.3 28.3 48.0 84.3 84.3 7.8 16.5 9.8 209.5 173.1 0.00 0.1593960 86.1
2021-07-22 15:40:00 83.9 29.4 48.6 83.9 83.9 9.2 19.2 10.0 70.8 168.7 0.00 0.1057383 86.2
2021-07-22 15:45:00 83.4 30.1 48.8 83.4 83.4 9.7 12.6 8.8 206.0 158.1 0.00 0.0561630 86.4
2021-07-22 15:50:00 82.9 29.5 47.8 82.9 82.9 12.4 15.1 10.9 158.3 167.4 0.00 0.0490302 86.5
2021-07-22 15:55:00 82.8 30.3 48.5 82.8 82.8 13.1 15.5 10.6 115.9 154.2 0.00 0.1077378 86.7
2021-07-22 16:00:00 82.5 29.6 47.6 82.5 82.5 11.9 15.8 11.8 108.8 139.0 0.00 0.0576800 86.8
2021-07-22 16:05:00 83.6 29.4 48.3 83.6 83.6 11.2 13.1 8.9 138.1 157.8 0.00 0.1394072 86.9
2021-07-22 16:10:00 83.2 29.2 47.9 83.2 83.2 9.6 14.9 11.4 183.0 189.6 0.00 0.1265678 87.0
2021-07-22 16:15:00 84.0 30.6 49.8 84.0 84.0 8.8 13.5 9.8 185.9 171.2 0.00 0.1297625 87.0
2021-07-22 16:20:00 83.8 30.9 49.9 83.8 83.8 9.7 14.9 10.8 144.8 161.7 0.00 0.1207974 87.1
2021-07-22 16:25:00 83.2 30.3 48.8 83.2 83.2 9.4 14.2 9.5 115.0 165.1 0.00 0.0824666 87.2
2021-07-22 16:30:00 83.9 29.3 48.5 83.9 83.9 8.7 12.1 7.7 199.0 195.9 0.00 0.0804460 87.2
2021-07-22 16:35:00 84.4 31.7 51.1 84.4 84.4 6.7 9.0 6.9 195.2 151.4 0.00 0.1105849 87.3
2021-07-22 16:40:00 83.7 31.8 50.6 83.7 83.7 6.9 14.6 10.0 142.4 188.4 0.00 0.1016144 87.3
2021-07-22 16:45:00 84.0 28.9 48.3 84.0 84.0 8.8 11.7 8.3 123.0 150.9 0.00 0.1189236 87.4
2021-07-22 16:50:00 84.2 30.4 49.8 84.2 84.2 7.8 11.2 8.8 201.1 163.8 0.00 0.1116632 87.4
2021-07-22 16:55:00 83.9 30.1 49.2 83.9 83.9 7.8 12.2 8.4 113.9 173.0 0.00 0.0880342 87.5
2021-07-22 17:00:00 83.7 30.7 49.6 83.7 83.7 9.6 12.6 9.6 191.8 155.8 0.00 0.0991751 87.5
2021-07-22 17:05:00 83.7 29.0 48.1 83.7 83.7 11.0 16.4 10.1 214.8 215.5 0.00 0.0778035 87.5
2021-07-22 17:10:00 82.6 31.0 49.0 82.6 82.6 6.7 12.1 8.6 234.9 214.9 0.00 0.0351706 87.5
2021-07-22 17:15:00 82.8 31.5 49.6 82.8 82.8 5.6 8.7 6.0 213.7 225.7 0.00 0.0526871 87.5
2021-07-22 17:20:00 82.7 30.7 48.7 82.7 82.7 8.0 10.6 8.8 114.2 215.7 0.00 0.0514855 87.6
2021-07-22 17:25:00 82.8 32.2 50.1 82.8 82.8 5.5 10.5 7.6 204.4 201.7 0.00 0.0582826 87.6
2021-07-22 17:30:00 82.2 32.2 49.6 82.2 82.2 7.8 11.7 9.1 200.8 207.7 0.00 0.0334549 87.5
2021-07-22 17:35:00 82.9 30.7 48.9 82.9 82.9 9.7 12.6 8.3 199.9 195.4 0.00 0.0817530 87.6
2021-07-22 17:40:00 83.4 29.3 48.1 83.4 83.4 6.5 10.6 8.5 211.5 188.7 0.00 0.0764316 87.5
2021-07-22 17:45:00 82.6 29.5 47.6 82.6 82.6 6.2 9.2 6.4 204.8 190.8 0.00 0.0113942 87.5
2021-07-22 17:50:00 81.4 31.4 48.3 81.4 81.4 7.1 9.2 7.1 204.0 208.5 0.00 0.0047219 87.5
2021-07-22 17:55:00 81.2 31.5 48.1 81.2 81.2 2.6 9.2 5.2 235.2 204.8 0.00 0.0032158 87.5
2021-07-22 18:00:00 80.8 32.9 48.9 80.8 80.8 5.3 5.6 3.9 265.0 261.1 0.00 0.0032181 87.4
2021-07-22 18:05:00 75.8 59.2 60.6 75.8 75.8 7.1 12.2 7.5 281.4 285.0 0.00 0.0009702 87.4
2021-07-22 18:10:00 71.8 61.5 57.9 71.8 71.8 17.2 17.2 10.3 261.2 263.8 0.00 0.0048022 87.3
2021-07-22 18:15:00 70.5 61.4 56.6 70.5 70.5 13.9 17.6 14.0 238.4 242.5 0.00 0.0088354 87.3
2021-07-22 18:20:00 70.5 54.2 53.2 70.5 70.5 15.8 17.6 14.2 250.1 220.7 0.00 0.0118524 87.2
2021-07-22 18:25:00 70.7 54.0 53.2 70.7 70.7 14.9 14.9 11.2 255.7 228.5 0.00 0.0140984 87.1
2021-07-22 18:30:00 70.8 54.5 53.6 70.8 70.8 11.9 17.1 12.2 239.5 216.0 0.00 0.0123437 87.0
2021-07-22 18:35:00 72.2 46.8 50.7 72.2 72.2 11.9 17.4 13.3 206.1 216.4 0.00 0.0114389 86.9
2021-07-22 18:40:00 72.2 49.1 52.1 72.2 72.2 10.8 12.2 10.3 211.6 212.3 0.00 0.0135334 86.8
2021-07-22 18:45:00 72.1 49.5 52.2 72.1 72.1 9.0 10.8 8.9 174.7 221.7 0.00 0.0132915 86.6
2021-07-22 18:50:00 73.2 47.8 52.2 73.2 73.2 9.7 10.8 8.4 156.3 208.9 0.00 0.0286165 86.5
2021-07-22 18:55:00 73.6 47.8 52.6 73.6 73.6 8.5 13.0 9.0 222.6 209.0 0.00 0.0294227 86.4
2021-07-22 19:00:00 73.7 49.1 53.4 73.7 73.7 4.7 12.1 8.2 130.7 192.1 0.00 0.0261337 86.2
2021-07-22 19:05:00 73.8 47.6 52.6 73.8 73.8 7.6 8.7 6.8 213.0 188.6 0.00 0.0232048 86.1
2021-07-22 19:10:00 74.0 47.1 52.6 74.0 74.0 5.8 9.4 7.1 206.5 199.7 0.00 0.0209687 85.9
2021-07-22 19:15:00 74.2 46.2 52.2 74.2 74.2 7.6 8.8 6.3 218.1 205.2 0.00 0.0183302 85.7
2021-07-22 19:20:00 74.3 46.3 52.4 74.3 74.3 5.8 9.7 6.7 236.8 221.1 0.00 0.0158123 85.6
2021-07-22 19:25:00 74.0 45.9 51.9 74.0 74.0 7.1 8.3 7.0 211.8 222.8 0.00 0.0064240 85.4
2021-07-22 19:30:00 73.6 46.0 51.5 73.6 73.6 6.2 8.5 7.0 245.9 227.5 0.00 0.0028263 85.3
2021-07-22 19:35:00 73.4 46.0 51.4 73.4 73.4 6.9 8.7 6.5 230.2 223.1 0.00 0.0014393 85.1
2021-07-22 19:40:00 73.0 45.5 50.7 73.0 73.0 7.8 8.3 6.6 197.3 219.1 0.00 0.0010513 85.0
2021-07-22 19:45:00 72.6 47.2 51.3 72.6 72.6 5.5 7.8 6.0 246.1 214.4 0.00 0.0002417 84.8
2021-07-22 19:50:00 72.2 48.3 51.7 72.2 72.2 5.6 7.2 5.9 210.3 218.3 0.00 0.0000161 84.7
2021-07-22 19:55:00 72.1 48.1 51.4 72.1 72.1 5.1 8.7 6.1 234.5 220.0 0.00 0.0000000 84.5
2021-07-22 20:00:00 71.9 46.5 50.3 71.9 71.9 6.3 9.2 5.7 228.1 212.1 0.00 0.0000000 84.3
2021-07-22 20:05:00 72.2 45.5 50.0 72.2 72.2 7.2 9.0 6.5 217.2 209.2 0.00 0.0000000 84.2
2021-07-22 20:10:00 72.6 44.4 49.7 72.6 72.6 6.9 9.6 7.0 205.5 204.6 0.00 0.0000000 84.1
2021-07-22 20:15:00 72.3 46.6 50.7 72.3 72.3 4.0 7.4 5.5 229.4 222.8 0.00 0.0000000 83.9
2021-07-22 20:20:00 71.9 47.3 50.7 71.9 71.9 4.7 5.8 4.8 234.3 230.4 0.00 0.0000000 83.8
2021-07-22 20:25:00 71.7 48.3 51.1 71.7 71.7 4.4 5.3 4.3 224.5 243.8 0.00 0.0000000 83.6
2021-07-22 20:30:00 72.0 46.2 50.2 72.0 72.0 4.9 6.5 5.1 226.3 227.9 0.00 0.0000000 83.5
2021-07-22 20:35:00 72.1 46.2 50.3 72.1 72.1 4.9 5.5 4.4 209.9 228.7 0.00 0.0000000 83.3
2021-07-22 20:40:00 72.1 46.4 50.5 72.1 72.1 4.0 4.7 4.0 212.4 218.8 0.00 0.0000000 83.2
2021-07-22 20:45:00 72.0 51.0 52.9 72.0 72.0 1.3 4.0 2.4 131.2 170.1 0.00 0.0000000 83.1
2021-07-22 20:50:00 71.8 46.6 50.3 71.8 71.8 1.3 2.2 1.4 49.1 133.0 0.00 0.0000000 82.9
2021-07-22 20:55:00 71.7 46.8 50.2 71.7 71.7 4.7 4.7 0.9 111.8 84.8 0.00 0.0000000 82.8
2021-07-22 21:00:00 71.8 48.2 51.2 71.8 71.8 3.1 4.9 3.4 145.3 141.3 0.00 0.0000000 82.7
2021-07-22 21:05:00 71.8 45.6 49.7 71.8 71.8 4.6 4.6 2.9 188.6 149.4 0.00 0.0000000 82.5
2021-07-22 21:10:00 71.8 46.1 49.9 71.8 71.8 3.0 4.6 3.3 192.3 159.8 0.00 0.0000000 82.4
2021-07-22 21:15:00 72.1 45.5 49.9 72.1 72.1 3.3 5.8 3.9 211.5 185.3 0.00 0.0000000 82.3
2021-07-22 21:20:00 72.8 42.3 48.6 72.8 72.8 7.6 9.2 6.1 217.2 194.8 0.00 0.0000000 82.2
2021-07-22 21:25:00 72.6 43.2 49.0 72.6 72.6 4.2 7.1 4.3 163.1 217.5 0.00 0.0000000 82.1
2021-07-22 21:30:00 72.3 47.0 50.9 72.3 72.3 4.6 4.6 3.3 317.9 280.7 0.00 0.0000000 81.9
2021-07-22 21:35:00 70.8 53.0 52.8 70.8 70.8 6.0 8.3 6.2 0.7 337.3 0.00 0.0000000 81.8
2021-07-22 21:40:00 69.8 56.1 53.5 69.8 69.8 7.8 8.5 6.7 323.2 342.8 0.00 0.0000000 81.7
2021-07-22 21:45:00 69.0 56.7 53.0 69.0 69.0 5.3 8.3 5.5 336.9 347.4 0.00 0.0000000 81.6
2021-07-22 21:50:00 68.5 58.6 53.4 68.5 68.5 4.7 5.6 5.0 333.0 334.7 0.00 0.0000000 81.5
2021-07-22 21:55:00 68.0 59.5 53.3 68.0 68.0 5.3 5.6 4.3 318.5 318.7 0.00 0.0000000 81.4
2021-07-22 22:00:00 67.8 60.4 53.6 67.8 67.8 2.6 6.3 3.8 251.7 291.8 0.00 0.0000000 81.3
2021-07-22 22:05:00 67.4 61.8 53.9 67.4 67.4 2.6 3.0 2.3 275.1 269.1 0.00 0.0000000 81.2
2021-07-22 22:10:00 66.9 64.7 54.7 66.9 66.9 2.2 3.5 2.6 333.4 321.5 0.00 0.0000000 81.1
2021-07-22 22:15:00 66.1 67.4 55.0 66.1 66.1 3.7 3.7 2.8 304.8 328.3 0.00 0.0000000 80.9
2021-07-22 22:20:00 65.4 68.0 54.5 65.4 65.4 2.8 3.7 3.1 283.8 310.3 0.00 0.0000000 80.9
2021-07-22 22:25:00 66.0 66.1 54.4 66.0 66.0 2.6 2.8 2.4 286.5 294.8 0.00 0.0000000 80.8
2021-07-22 22:30:00 66.0 67.7 55.1 66.0 66.0 2.6 3.0 2.1 269.0 277.4 0.00 0.0000000 80.7
2021-07-22 22:35:00 65.7 68.3 54.9 65.7 65.7 3.5 3.7 2.9 257.2 259.5 0.00 0.0000000 80.6
2021-07-22 22:40:00 65.8 68.3 55.1 65.8 65.8 3.3 3.3 3.0 252.1 250.4 0.00 0.0000000 80.5
2021-07-22 22:45:00 65.3 70.3 55.4 65.3 65.3 3.7 4.4 3.7 267.7 258.8 0.00 0.0000000 80.3
2021-07-22 22:50:00 64.6 73.2 55.8 64.6 64.6 4.6 4.9 3.9 266.9 260.8 0.00 0.0000000 80.2
2021-07-22 22:55:00 63.8 76.0 56.1 63.8 63.8 3.7 4.9 4.1 265.5 267.5 0.00 0.0000000 80.1
2021-07-22 23:00:00 63.4 77.6 56.2 63.4 63.4 3.8 4.2 3.7 218.9 251.3 0.00 0.0000000 80.0
2021-07-22 23:05:00 63.5 75.3 55.5 63.5 63.5 4.0 4.6 3.9 255.6 239.6 0.00 0.0000000 79.9
2021-07-22 23:10:00 63.7 74.9 55.6 63.7 63.7 4.6 4.9 4.2 273.5 251.7 0.00 0.0000000 79.8
2021-07-22 23:15:00 63.8 75.3 55.8 63.8 63.8 4.4 5.3 4.4 258.4 255.4 0.00 0.0000000 79.7
2021-07-22 23:20:00 64.4 71.5 55.0 64.4 64.4 6.2 6.3 5.1 254.8 249.2 0.00 0.0000000 79.6
2021-07-22 23:25:00 65.0 70.8 55.3 65.0 65.0 5.6 5.6 5.1 256.0 265.7 0.00 0.0000000 79.5
2021-07-22 23:30:00 64.7 71.8 55.4 64.7 64.7 4.7 5.5 4.7 246.4 258.6 0.00 0.0000000 79.4
2021-07-22 23:35:00 64.7 71.9 55.4 64.7 64.7 4.6 4.9 4.3 269.4 260.3 0.00 0.0000000 79.3
2021-07-22 23:40:00 64.6 71.6 55.2 64.6 64.6 4.2 4.7 4.2 244.0 256.4 0.00 0.0000000 79.2
2021-07-22 23:45:00 64.6 71.0 55.0 64.6 64.6 3.7 4.6 4.0 233.7 250.0 0.00 0.0000000 79.1
2021-07-22 23:50:00 64.0 74.1 55.6 64.0 64.0 3.5 4.4 3.8 121.6 225.7 0.00 0.0000000 79.0
2021-07-22 23:55:00 63.6 74.0 55.1 63.6 63.6 4.7 5.1 4.4 189.3 203.0 0.00 0.0000000 78.9
2021-07-23 00:00:00 63.5 73.7 54.9 63.5 63.5 5.6 5.6 5.1 242.3 221.8 0.00 0.0000000 78.8

Data is courtesy of the NM Climate Center. DO NOT USE IN LEGAL PROCEEDINGS.